Time;durP1;ratioP1;P1;durP2;ratioP2;P2;SDS_P1;SDS_P2;PMS_P1;PMS_P2;Temp;Humidity;BMP_temperature;BMP_pressure;BME280_temperature;BME280_humidity;BME280_pressure;Samples;Min_cycle;Max_cycle;Signal;HPM_P1;HPM_P2
2023/01/11 00:01:06;;;;;;;2.67;1.87;;;;;;;;;;5089895;28;20437;-50
2023/01/11 00:03:32;;;;;;;3.03;2.10;;;;;;;;;;5090191;28;20803;-50
2023/01/11 00:05:58;;;;;;;2.13;1.77;;;;;;;;;;5089655;28;20600;-49
2023/01/11 00:08:26;;;;;;;2.57;1.50;;;;;;;;;;5090168;28;20475;-49
2023/01/11 00:10:53;;;;;;;4.37;1.90;;;;;;;;;;5089967;28;20207;-50
2023/01/11 00:13:18;;;;;;;2.47;1.77;;;;;;;;;;5089597;28;20476;-50
2023/01/11 00:15:45;;;;;;;2.03;1.53;;;;;;;;;;5089968;28;20202;-50
2023/01/11 00:18:11;;;;;;;1.93;1.60;;;;;;;;;;5089686;28;20187;-49
2023/01/11 00:20:38;;;;;;;3.03;1.70;;;;;;;;;;5090151;28;20195;-50
2023/01/11 00:23:04;;;;;;;6.10;2.83;;;;;;;;;;5089850;28;20294;-48
2023/01/11 00:25:31;;;;;;;2.00;1.60;;;;;;;;;;5089454;28;20290;-49
2023/01/11 00:27:57;;;;;;;2.60;1.80;;;;;;;;;;5089793;28;20202;-49
2023/01/11 00:30:23;;;;;;;3.43;1.80;;;;;;;;;;5089902;28;20194;-50
2023/01/11 00:32:49;;;;;;;3.60;1.90;;;;;;;;;;5089738;28;20198;-50
2023/01/11 00:35:15;;;;;;;5.17;1.80;;;;;;;;;;5089395;28;20254;-49
2023/01/11 00:37:41;;;;;;;4.03;1.90;;;;;;;;;;5089453;28;20311;-50
2023/01/11 00:40:08;;;;;;;2.73;1.67;;;;;;;;;;5089750;28;20203;-49
2023/01/11 00:48:05;;;;;;;2.53;1.80;;;;;;;;;;5089811;28;20248;-49
2023/01/11 00:50:33;;;;;;;4.63;1.83;;;;;;;;;;5089374;28;20433;-49
2023/01/11 00:52:59;;;;;;;2.10;1.60;;;;;;;;;;5085570;28;20494;-51
2023/01/11 00:55:26;;;;;;;3.00;1.83;;;;;;;;;;5089487;28;20649;-51
2023/01/11 00:57:53;;;;;;;2.77;1.60;;;;;;;;;;5089323;28;20460;-52
2023/01/11 01:00:21;;;;;;;3.30;1.50;;;;;;;;;;5091419;28;20210;-54
2023/01/11 01:02:47;;;;;;;3.00;1.43;;;;;;;;;;5093418;28;20448;-51
2023/01/11 01:05:13;;;;;;;2.33;1.40;;;;;;;;;;5093311;28;20436;-53
2023/01/11 01:07:39;;;;;;;3.87;1.50;;;;;;;;;;5093291;28;20722;-53
2023/01/11 01:10:08;;;;;;;1.53;1.43;;;;;;;;;;5093293;28;20429;-53
2023/01/11 01:15:20;;;;;;;2.67;1.77;;;;;;;;;;5093094;28;20518;-50
2023/01/11 01:17:47;;;;;;;2.93;1.47;;;;;;;;;;5093200;28;20589;-50
2023/01/11 01:20:13;;;;;;;2.30;1.53;;;;;;;;;;5092947;28;20440;-51
2023/01/11 01:22:39;;;;;;;2.23;1.50;;;;;;;;;;5092954;28;20199;-50
2023/01/11 01:25:05;;;;;;;1.40;1.20;;;;;;;;;;5093272;28;20198;-50
2023/01/11 01:27:32;;;;;;;1.97;1.20;;;;;;;;;;5092868;28;20657;-50
2023/01/11 01:29:59;;;;;;;1.40;1.30;;;;;;;;;;5092851;28;21096;-50
2023/01/11 01:32:26;;;;;;;1.53;1.30;;;;;;;;;;5092762;28;20190;-50
2023/01/11 01:34:52;;;;;;;1.50;1.20;;;;;;;;;;5092351;28;20218;-50
2023/01/11 01:37:18;;;;;;;2.70;1.33;;;;;;;;;;5093167;28;20516;-50
2023/01/11 01:39:44;;;;;;;1.50;1.40;;;;;;;;;;5092861;28;20709;-50
2023/01/11 01:42:12;;;;;;;1.50;1.30;;;;;;;;;;5092713;28;20187;-50
2023/01/11 01:45:01;;;;;;;2.90;1.50;;;;;;;;;;5092613;28;20194;-50
2023/01/11 01:47:32;;;;;;;1.47;1.20;;;;;;;;;;5092723;28;20440;-50
2023/01/11 01:50:00;;;;;;;1.70;1.30;;;;;;;;;;5092388;28;20210;-50
2023/01/11 01:52:27;;;;;;;2.60;1.47;;;;;;;;;;5092467;28;20210;-49
2023/01/11 01:54:55;;;;;;;2.17;1.30;;;;;;;;;;5092381;28;20219;-50
2023/01/11 01:57:24;;;;;;;2.40;1.50;;;;;;;;;;5092477;28;20217;-50
2023/01/11 01:59:51;;;;;;;2.23;1.50;;;;;;;;;;5092235;28;20672;-50
2023/01/11 02:02:18;;;;;;;1.30;1.20;;;;;;;;;;5092337;28;20191;-50
2023/01/11 02:04:46;;;;;;;2.90;1.70;;;;;;;;;;5092243;28;20195;-50
2023/01/11 02:07:14;;;;;;;1.83;1.50;;;;;;;;;;5092170;28;20292;-50
2023/01/11 02:09:43;;;;;;;3.70;1.37;;;;;;;;;;5092288;28;20536;-50
2023/01/11 02:12:09;;;;;;;1.60;1.23;;;;;;;;;;5091917;28;20293;-50
2023/01/11 02:14:35;;;;;;;2.20;1.40;;;;;;;;;;5091870;28;20223;-50
2023/01/11 02:17:01;;;;;;;2.63;1.60;;;;;;;;;;5091966;28;20209;-49
2023/01/11 02:19:33;;;;;;;3.17;1.43;;;;;;;;;;5092080;28;20199;-49
2023/01/11 02:22:16;;;;;;;3.17;1.40;;;;;;;;;;5091788;28;20202;-49
2023/01/11 02:24:54;;;;;;;1.50;1.40;;;;;;;;;;5092029;28;20203;-49
2023/01/11 02:27:33;;;;;;;1.97;1.40;;;;;;;;;;5091885;28;20206;-49
2023/01/11 02:30:07;;;;;;;1.40;1.30;;;;;;;;;;5091685;28;20195;-49
2023/01/11 02:32:37;;;;;;;1.90;1.50;;;;;;;;;;5091852;28;20252;-50
2023/01/11 02:35:12;;;;;;;2.13;1.50;;;;;;;;;;5091461;28;20239;-50
2023/01/11 02:37:41;;;;;;;3.70;1.80;;;;;;;;;;5091700;28;20439;-50
2023/01/11 02:40:15;;;;;;;2.50;1.60;;;;;;;;;;5091544;28;20449;-49
2023/01/11 02:45:40;;;;;;;1.50;1.40;;;;;;;;;;5069823;28;20252;-49
2023/01/11 02:48:11;;;;;;;2.03;1.50;;;;;;;;;;5091559;28;20305;-49
2023/01/11 02:50:39;;;;;;;3.43;1.67;;;;;;;;;;5091380;28;20220;-49
2023/01/11 02:53:07;;;;;;;2.60;1.47;;;;;;;;;;5091184;28;20214;-49
2023/01/11 02:55:36;;;;;;;1.53;1.43;;;;;;;;;;5091486;28;20429;-49
2023/01/11 02:58:05;;;;;;;2.00;1.80;;;;;;;;;;5091255;28;20301;-50
2023/01/11 03:00:31;;;;;;;3.00;1.60;;;;;;;;;;5091409;28;20449;-51
2023/01/11 03:03:09;;;;;;;2.70;1.70;;;;;;;;;;5091342;28;20195;-50
2023/01/11 03:05:37;;;;;;;2.33;1.47;;;;;;;;;;5091111;28;20468;-50
2023/01/11 03:08:10;;;;;;;2.47;2.17;;;;;;;;;;5091075;28;20201;-51
2023/01/11 03:10:39;;;;;;;2.90;1.63;;;;;;;;;;5091301;28;20252;-51
2023/01/11 03:13:11;;;;;;;3.27;1.70;;;;;;;;;;5091078;28;20217;-51
2023/01/11 03:15:47;;;;;;;2.40;1.53;;;;;;;;;;5091131;28;20226;-52
2023/01/11 03:18:25;;;;;;;2.37;1.80;;;;;;;;;;5090834;28;20206;-52
2023/01/11 03:20:54;;;;;;;1.83;1.73;;;;;;;;;;5090805;28;20233;-52
2023/01/11 03:23:23;;;;;;;2.47;2.00;;;;;;;;;;5090343;28;20206;-52
2023/01/11 03:25:55;;;;;;;2.20;1.60;;;;;;;;;;5090953;28;20282;-52
2023/01/11 03:28:25;;;;;;;2.90;1.60;;;;;;;;;;5090871;28;20195;-52
2023/01/11 03:30:56;;;;;;;2.60;1.70;;;;;;;;;;5090532;28;20218;-52
2023/01/11 03:33:26;;;;;;;1.50;1.40;;;;;;;;;;5090701;28;20209;-51
2023/01/11 03:35:54;;;;;;;2.97;1.50;;;;;;;;;;5090529;28;20238;-50
2023/01/11 03:38:22;;;;;;;2.13;1.40;;;;;;;;;;5090764;28;20191;-50
2023/01/11 03:40:51;;;;;;;2.33;1.33;;;;;;;;;;5090513;28;20657;-51
2023/01/11 03:43:18;;;;;;;1.50;1.40;;;;;;;;;;5090497;28;20237;-50
2023/01/11 03:45:47;;;;;;;1.67;1.47;;;;;;;;;;5090540;28;20214;-50
2023/01/11 03:48:16;;;;;;;1.20;1.10;;;;;;;;;;5090407;28;20195;-50
2023/01/11 03:50:45;;;;;;;1.30;1.20;;;;;;;;;;5090433;28;20278;-50
2023/01/11 03:53:11;;;;;;;1.50;1.30;;;;;;;;;;5090386;28;20199;-50
2023/01/11 03:55:38;;;;;;;2.17;1.40;;;;;;;;;;5090441;28;20271;-50
2023/01/11 03:58:05;;;;;;;2.83;1.40;;;;;;;;;;5090261;28;20590;-50
2023/01/11 04:00:31;;;;;;;1.90;1.30;;;;;;;;;;5090333;28;20626;-50
2023/01/11 04:02:59;;;;;;;1.57;1.30;;;;;;;;;;5090430;28;20214;-50
2023/01/11 04:05:25;;;;;;;2.20;1.30;;;;;;;;;;5090290;28;20195;-50
2023/01/11 04:07:53;;;;;;;1.20;1.17;;;;;;;;;;5090092;28;20205;-50
2023/01/11 04:10:19;;;;;;;2.43;1.33;;;;;;;;;;5090314;28;20748;-50
2023/01/11 04:12:46;;;;;;;1.40;1.30;;;;;;;;;;5090116;28;20237;-50
2023/01/11 04:15:12;;;;;;;1.37;1.27;;;;;;;;;;5090065;28;20250;-50
2023/01/11 04:17:38;;;;;;;1.30;1.20;;;;;;;;;;5090245;28;20203;-50
2023/01/11 04:20:04;;;;;;;1.37;1.27;;;;;;;;;;5089755;28;20275;-50
2023/01/11 04:22:30;;;;;;;5.43;1.30;;;;;;;;;;5090030;28;20240;-50
2023/01/11 04:24:58;;;;;;;1.20;1.10;;;;;;;;;;5089965;28;20183;-50
2023/01/11 04:27:24;;;;;;;1.37;1.27;;;;;;;;;;5090015;28;20657;-50
2023/01/11 04:29:50;;;;;;;1.43;1.10;;;;;;;;;;5090023;28;20557;-50
2023/01/11 04:32:16;;;;;;;1.07;1.07;;;;;;;;;;5089516;28;20602;-49
2023/01/11 04:34:42;;;;;;;1.40;1.10;;;;;;;;;;5090416;28;20222;-49
2023/01/11 04:37:08;;;;;;;1.00;1.00;;;;;;;;;;5094153;28;20268;-49
2023/01/11 04:39:34;;;;;;;2.17;1.53;;;;;;;;;;5094214;28;20614;-50
2023/01/11 04:42:34;;;;;;;1.43;1.13;;;;;;;;;;5093878;28;20190;-49
2023/01/11 04:44:53;;;;;;;3.30;1.20;;;;;;;;;;5091653;28;20212;-49
2023/01/11 04:47:20;;;;;;;1.10;1.10;;;;;;;;;;5093683;28;20187;-49
2023/01/11 04:49:46;;;;;;;1.30;1.20;;;;;;;;;;5093908;28;20554;-49
2023/01/11 04:52:13;;;;;;;1.37;1.27;;;;;;;;;;5093594;28;20194;-50
2023/01/11 04:54:39;;;;;;;2.37;1.00;;;;;;;;;;5093595;28;20234;-53
2023/01/11 04:57:07;;;;;;;1.43;1.27;;;;;;;;;;5093937;28;20199;-49
2023/01/11 04:59:33;;;;;;;1.17;1.07;;;;;;;;;;5093832;28;20276;-49
2023/01/11 05:01:59;;;;;;;1.43;1.20;;;;;;;;;;5093315;28;20665;-49
2023/01/11 05:04:25;;;;;;;1.77;1.37;;;;;;;;;;5093528;28;20193;-49
2023/01/11 05:06:51;;;;;;;1.97;1.20;;;;;;;;;;5093431;28;20264;-50
2023/01/11 05:09:18;;;;;;;1.30;1.20;;;;;;;;;;5093453;28;20199;-50
2023/01/11 05:11:44;;;;;;;1.57;1.30;;;;;;;;;;5093295;28;20202;-50
2023/01/11 05:14:11;;;;;;;3.33;1.50;;;;;;;;;;5093000;28;20658;-50
2023/01/11 05:16:37;;;;;;;2.03;1.20;;;;;;;;;;5093240;28;20242;-50
2023/01/11 05:19:05;;;;;;;1.13;1.10;;;;;;;;;;5093029;28;20531;-50
2023/01/11 05:21:32;;;;;;;1.33;1.23;;;;;;;;;;5093293;28;20203;-50
2023/01/11 05:23:59;;;;;;;1.60;1.50;;;;;;;;;;5093223;28;20244;-51
2023/01/11 05:26:26;;;;;;;1.40;1.30;;;;;;;;;;5093086;28;20198;-51
2023/01/11 05:28:53;;;;;;;1.40;1.30;;;;;;;;;;5092947;28;20218;-52
2023/01/11 05:31:21;;;;;;;1.77;1.50;;;;;;;;;;5092794;28;20590;-50
2023/01/11 05:33:47;;;;;;;1.73;1.30;;;;;;;;;;5092599;28;20561;-51
2023/01/11 05:36:14;;;;;;;2.50;1.50;;;;;;;;;;5092642;28;20235;-50
2023/01/11 05:38:39;;;;;;;2.60;1.30;;;;;;;;;;5092921;28;20197;-51
2023/01/11 05:41:06;;;;;;;1.73;1.50;;;;;;;;;;5092772;28;20419;-51
2023/01/11 05:45:27;;;;;;;2.53;1.40;;;;;;;;;;5092826;28;20207;-51
2023/01/11 05:46:20;;;;;;;1.67;1.30;;;;;;;;;;5091905;28;20255;-51
2023/01/11 05:48:46;;;;;;;2.70;1.47;;;;;;;;;;5092590;28;20242;-50
2023/01/11 05:51:12;;;;;;;2.20;1.47;;;;;;;;;;5092960;28;20203;-51
2023/01/11 05:53:39;;;;;;;1.50;1.40;;;;;;;;;;5092265;28;20260;-51
2023/01/11 05:56:05;;;;;;;1.47;1.37;;;;;;;;;;5092604;28;20195;-51
2023/01/11 05:58:31;;;;;;;1.93;1.47;;;;;;;;;;5092595;28;20297;-51
2023/01/11 06:00:57;;;;;;;1.30;1.20;;;;;;;;;;5092308;28;20297;-51
2023/01/11 06:03:24;;;;;;;2.63;1.70;;;;;;;;;;5092725;28;20256;-51
2023/01/11 06:05:51;;;;;;;1.83;1.50;;;;;;;;;;5092292;28;20603;-51
2023/01/11 06:08:17;;;;;;;3.13;1.50;;;;;;;;;;5092163;28;20187;-51
2023/01/11 06:10:45;;;;;;;1.50;1.40;;;;;;;;;;5092206;28;20675;-50
2023/01/11 06:13:26;;;;;;;2.67;2.30;;;;;;;;;;5091866;28;20207;-50
2023/01/11 06:15:52;;;;;;;4.37;3.30;;;;;;;;;;5091917;28;20194;-50
2023/01/11 06:18:18;;;;;;;6.97;4.67;;;;;;;;;;5091637;28;20206;-50
2023/01/11 06:20:49;;;;;;;7.43;4.27;;;;;;;;;;5092220;28;20198;-50
2023/01/11 06:23:15;;;;;;;7.23;4.80;;;;;;;;;;5091918;28;20195;-51
2023/01/11 06:25:41;;;;;;;7.33;5.57;;;;;;;;;;5091860;28;20210;-51
2023/01/11 06:28:07;;;;;;;2.97;2.30;;;;;;;;;;5091859;28;20202;-51
2023/01/11 06:30:33;;;;;;;2.00;1.80;;;;;;;;;;5091785;28;20248;-50
2023/01/11 06:33:05;;;;;;;3.50;1.57;;;;;;;;;;5091663;28;20265;-50
2023/01/11 06:35:31;;;;;;;2.20;2.00;;;;;;;;;;5091250;28;20375;-51
2023/01/11 06:37:58;;;;;;;1.57;1.47;;;;;;;;;;5091543;28;20664;-50
2023/01/11 06:40:24;;;;;;;1.60;1.50;;;;;;;;;;5091568;28;20225;-50
2023/01/11 06:42:50;;;;;;;1.73;1.63;;;;;;;;;;5091525;28;20656;-51
2023/01/11 06:45:16;;;;;;;2.00;1.43;;;;;;;;;;5091602;28;20192;-51
2023/01/11 06:47:42;;;;;;;1.87;1.40;;;;;;;;;;5091453;28;20661;-51
2023/01/11 06:50:09;;;;;;;1.57;1.47;;;;;;;;;;5091397;28;20195;-51
2023/01/11 06:52:35;;;;;;;2.53;1.30;;;;;;;;;;5091391;28;20556;-51
2023/01/11 06:55:02;;;;;;;1.70;1.60;;;;;;;;;;5091137;28;20223;-51
2023/01/11 06:57:29;;;;;;;1.40;1.30;;;;;;;;;;5090619;28;20207;-51
2023/01/11 06:59:55;;;;;;;2.20;1.23;;;;;;;;;;5091164;28;20198;-51
2023/01/11 07:02:21;;;;;;;1.47;1.37;;;;;;;;;;5091400;28;20660;-51
2023/01/11 07:04:46;;;;;;;2.83;1.80;;;;;;;;;;5091348;28;20203;-52
2023/01/11 07:07:12;;;;;;;1.60;1.50;;;;;;;;;;5091186;28;20724;-51
2023/01/11 07:09:38;;;;;;;3.63;1.60;;;;;;;;;;5091294;28;20594;-51
2023/01/11 07:12:06;;;;;;;1.50;1.40;;;;;;;;;;5090777;28;20209;-51
2023/01/11 07:14:32;;;;;;;2.70;1.60;;;;;;;;;;5091057;28;20716;-51
2023/01/11 07:16:58;;;;;;;2.40;2.10;;;;;;;;;;5090685;28;20195;-50
2023/01/11 07:19:24;;;;;;;1.70;1.60;;;;;;;;;;5091146;28;20645;-50
2023/01/11 07:21:50;;;;;;;1.83;1.73;;;;;;;;;;5090989;28;20199;-50
2023/01/11 07:24:16;;;;;;;2.20;2.00;;;;;;;;;;5090543;28;20232;-50
2023/01/11 07:26:42;;;;;;;2.43;2.10;;;;;;;;;;5090761;28;20294;-51
2023/01/11 07:29:10;;;;;;;3.17;2.23;;;;;;;;;;5090671;28;20210;-50
2023/01/11 07:31:36;;;;;;;2.10;2.00;;;;;;;;;;5090725;28;20203;-51
2023/01/11 07:34:02;;;;;;;3.03;2.17;;;;;;;;;;5090666;28;20291;-51
2023/01/11 07:36:35;;;;;;;3.97;2.00;;;;;;;;;;5090582;28;20515;-51
2023/01/11 07:39:01;;;;;;;2.60;2.40;;;;;;;;;;5090318;28;20199;-51
2023/01/11 07:44:13;;;;;;;3.53;2.90;;;;;;;;;;5090591;28;20232;-51
2023/01/11 07:46:39;;;;;;;2.97;2.77;;;;;;;;;;5090282;28;20656;-51
2023/01/11 07:49:05;;;;;;;5.37;3.10;;;;;;;;;;5090463;28;20225;-51
2023/01/11 07:51:31;;;;;;;4.33;3.53;;;;;;;;;;5090210;28;20636;-50
2023/01/11 07:54:01;;;;;;;3.70;3.40;;;;;;;;;;5090135;28;20233;-50
2023/01/11 07:56:27;;;;;;;4.27;3.63;;;;;;;;;;5090416;28;20205;-50
2023/01/11 07:58:53;;;;;;;4.27;3.77;;;;;;;;;;5090320;28;20191;-51
2023/01/11 08:01:20;;;;;;;4.87;4.40;;;;;;;;;;5090054;28;20195;-50
2023/01/11 08:03:46;;;;;;;5.33;4.83;;;;;;;;;;5090415;28;20669;-51
2023/01/11 08:06:15;;;;;;;4.70;4.30;;;;;;;;;;5090060;28;20218;-50
2023/01/11 08:08:41;;;;;;;4.43;4.03;;;;;;;;;;5089886;28;20209;-51
2023/01/11 08:16:38;;;;;;;4.60;4.20;;;;;;;;;;5090007;28;20235;-50
2023/01/11 08:19:04;;;;;;;5.10;4.60;;;;;;;;;;5089899;28;20206;-51
2023/01/11 08:21:30;;;;;;;4.70;4.30;;;;;;;;;;5089829;28;20195;-51
2023/01/11 08:23:57;;;;;;;4.47;4.07;;;;;;;;;;5090180;28;20289;-50
2023/01/11 08:26:23;;;;;;;5.07;4.67;;;;;;;;;;5089906;28;20234;-50
2023/01/11 08:28:49;;;;;;;4.63;4.17;;;;;;;;;;5089967;28;20222;-51
2023/01/11 08:31:15;;;;;;;5.00;4.50;;;;;;;;;;5089919;28;20707;-52
2023/01/11 08:33:43;;;;;;;4.73;4.33;;;;;;;;;;5089722;28;20199;-53
2023/01/11 08:36:10;;;;;;;4.67;4.27;;;;;;;;;;5089792;28;20311;-53
2023/01/11 08:38:36;;;;;;;5.20;4.70;;;;;;;;;;5090021;28;20198;-53
2023/01/11 08:41:02;;;;;;;4.37;4.07;;;;;;;;;;5089695;28;20608;-53
2023/01/11 08:43:30;;;;;;;4.43;4.13;;;;;;;;;;5089899;28;20278;-53
2023/01/11 08:45:56;;;;;;;4.70;4.17;;;;;;;;;;5089609;28;20195;-53
2023/01/11 08:48:22;;;;;;;4.20;3.80;;;;;;;;;;5089667;28;20198;-53
2023/01/11 08:50:49;;;;;;;4.43;4.03;;;;;;;;;;5089816;28;20293;-53
2023/01/11 08:53:15;;;;;;;4.27;3.97;;;;;;;;;;5089490;28;20214;-53
2023/01/11 08:55:43;;;;;;;4.43;4.03;;;;;;;;;;5090166;28;20227;-53
2023/01/11 08:58:09;;;;;;;4.87;4.17;;;;;;;;;;5089483;28;20251;-53
2023/01/11 09:00:35;;;;;;;4.00;3.70;;;;;;;;;;5089795;28;20248;-53
2023/01/11 09:03:01;;;;;;;5.27;3.93;;;;;;;;;;5090446;28;20209;-53
2023/01/11 09:05:27;;;;;;;4.77;4.23;;;;;;;;;;5089551;28;20199;-53
2023/01/11 09:07:55;;;;;;;4.27;3.87;;;;;;;;;;5089754;28;20726;-52
2023/01/11 09:10:21;;;;;;;5.83;4.50;;;;;;;;;;5089637;28;20254;-53
2023/01/11 09:12:47;;;;;;;4.37;4.03;;;;;;;;;;5089339;28;20614;-53
2023/01/11 09:15:13;;;;;;;4.70;4.30;;;;;;;;;;5089417;28;20211;-53
2023/01/11 09:17:39;;;;;;;4.90;4.50;;;;;;;;;;5089337;28;20603;-54
2023/01/11 09:20:05;;;;;;;5.00;4.60;;;;;;;;;;5089451;28;20191;-53
2023/01/11 09:22:32;;;;;;;5.30;4.40;;;;;;;;;;5093059;28;20198;-55
2023/01/11 09:25:00;;;;;;;5.07;4.57;;;;;;;;;;5093045;28;20223;-55
2023/01/11 09:27:26;;;;;;;5.10;4.70;;;;;;;;;;5093188;28;20286;-55
2023/01/11 09:29:52;;;;;;;5.23;4.80;;;;;;;;;;5092815;28;20632;-55
2023/01/11 09:32:18;;;;;;;5.33;4.83;;;;;;;;;;5092746;28;20301;-55
2023/01/11 09:34:46;;;;;;;6.47;5.87;;;;;;;;;;5092820;28;20302;-55
2023/01/11 09:37:11;;;;;;;6.30;5.80;;;;;;;;;;5092816;28;20264;-55
2023/01/11 09:39:38;;;;;;;6.83;6.23;;;;;;;;;;5093081;28;20553;-55
2023/01/11 09:42:11;;;;;;;6.70;6.07;;;;;;;;;;5092806;28;20250;-55
2023/01/11 09:44:42;;;;;;;7.67;6.97;;;;;;;;;;5092860;28;20195;-55
2023/01/11 09:47:12;;;;;;;6.80;6.13;;;;;;;;;;5092475;28;20230;-55
2023/01/11 09:49:41;;;;;;;7.13;6.53;;;;;;;;;;5092503;28;20211;-55
2023/01/11 09:52:23;;;;;;;7.50;6.70;;;;;;;;;;5092457;28;20252;-55
2023/01/11 09:54:50;;;;;;;7.20;6.60;;;;;;;;;;5092576;28;20226;-55
2023/01/11 09:57:22;;;;;;;7.37;6.77;;;;;;;;;;5092413;28;20199;-55
2023/01/11 09:59:51;;;;;;;6.80;6.20;;;;;;;;;;5092466;28;20214;-55
2023/01/11 10:02:25;;;;;;;6.07;5.57;;;;;;;;;;5092542;28;20279;-56
2023/01/11 10:05:01;;;;;;;7.60;6.90;;;;;;;;;;5092432;28;20206;-55
2023/01/11 10:07:36;;;;;;;7.50;6.80;;;;;;;;;;5092365;28;20206;-55
2023/01/11 10:10:08;;;;;;;8.40;7.60;;;;;;;;;;5092023;28;20202;-55
2023/01/11 10:12:38;;;;;;;8.27;7.57;;;;;;;;;;5092115;28;20195;-55
2023/01/11 10:15:11;;;;;;;8.60;7.80;;;;;;;;;;5092148;28;20230;-55
2023/01/11 10:17:41;;;;;;;8.30;7.60;;;;;;;;;;5092392;28;20198;-55
2023/01/11 10:20:14;;;;;;;8.10;7.30;;;;;;;;;;5092107;28;20653;-55
2023/01/11 10:22:42;;;;;;;7.00;6.40;;;;;;;;;;5091946;28;20660;-55
2023/01/11 10:25:20;;;;;;;7.97;7.27;;;;;;;;;;5091948;28;20203;-55
2023/01/11 10:27:55;;;;;;;9.40;8.10;;;;;;;;;;5092014;28;20632;-55
2023/01/11 10:30:39;;;;;;;7.90;7.20;;;;;;;;;;5091736;28;20566;-55
2023/01/11 10:33:41;;;;;;;8.57;7.77;;;;;;;;;;5091702;28;20204;-55
2023/01/11 10:38:56;;;;;;;7.80;7.17;;;;;;;;;;5091885;28;20191;-56
2023/01/11 10:41:32;;;;;;;7.57;6.87;;;;;;;;;;5091693;28;20190;-55
2023/01/11 10:44:03;;;;;;;7.77;6.83;;;;;;;;;;5091619;28;20233;-56
2023/01/11 10:46:30;;;;;;;7.77;7.17;;;;;;;;;;5091355;28;20230;-56
2023/01/11 10:49:00;;;;;;;7.80;7.00;;;;;;;;;;5091565;28;20198;-55
2023/01/11 10:51:31;;;;;;;8.97;7.10;;;;;;;;;;5091332;28;20567;-56
2023/01/11 10:54:01;;;;;;;8.70;7.80;;;;;;;;;;5091395;28;20209;-56
2023/01/11 10:56:34;;;;;;;8.00;7.03;;;;;;;;;;5091285;28;20298;-56
2023/01/11 10:59:08;;;;;;;7.63;6.90;;;;;;;;;;5091232;28;20202;-56
2023/01/11 11:01:47;;;;;;;9.00;7.40;;;;;;;;;;5090997;28;20616;-55
2023/01/11 11:04:21;;;;;;;8.87;7.90;;;;;;;;;;5091599;28;20195;-55
2023/01/11 11:06:52;;;;;;;7.30;6.60;;;;;;;;;;5091359;28;20197;-55
2023/01/11 11:09:23;;;;;;;7.33;6.63;;;;;;;;;;5091148;28;20198;-55
2023/01/11 11:11:52;;;;;;;7.50;6.77;;;;;;;;;;5091283;28;20271;-56
2023/01/11 11:14:23;;;;;;;6.57;5.90;;;;;;;;;;5090747;28;20876;-55
2023/01/11 11:16:55;;;;;;;7.37;6.03;;;;;;;;;;5090937;28;20210;-56
2023/01/11 11:19:24;;;;;;;7.53;6.50;;;;;;;;;;5090806;28;20661;-55
2023/01/11 11:21:51;;;;;;;6.63;5.83;;;;;;;;;;5091086;28;20199;-55
2023/01/11 11:24:20;;;;;;;6.50;5.90;;;;;;;;;;5090826;28;20202;-55
2023/01/11 11:26:48;;;;;;;6.40;5.90;;;;;;;;;;5090781;28;20194;-55
2023/01/11 11:29:21;;;;;;;7.10;6.03;;;;;;;;;;5090932;28;20187;-55
2023/01/11 11:31:49;;;;;;;7.57;5.53;;;;;;;;;;5090751;28;20856;-55
2023/01/11 11:34:16;;;;;;;9.63;6.43;;;;;;;;;;5090470;28;20203;-55
2023/01/11 11:36:42;;;;;;;8.37;6.63;;;;;;;;;;5090391;28;20230;-55
2023/01/11 11:39:17;;;;;;;7.50;6.07;;;;;;;;;;5090462;28;20307;-56
2023/01/11 11:41:47;;;;;;;9.83;6.63;;;;;;;;;;5090671;28;20198;-55
2023/01/11 11:44:18;;;;;;;7.00;5.60;;;;;;;;;;5090117;28;20203;-56
2023/01/11 11:46:59;;;;;;;6.93;5.60;;;;;;;;;;5090384;28;20559;-55
2023/01/11 11:49:25;;;;;;;7.03;6.27;;;;;;;;;;5090352;28;20206;-56
2023/01/11 11:51:52;;;;;;;7.47;5.87;;;;;;;;;;5090538;28;20205;-55
2023/01/11 11:54:19;;;;;;;10.30;5.63;;;;;;;;;;5089914;28;20724;-55
2023/01/11 11:56:46;;;;;;;8.77;6.27;;;;;;;;;;5090087;28;20201;-55
2023/01/11 11:59:13;;;;;;;7.23;5.30;;;;;;;;;;5090031;28;20560;-55
2023/01/11 12:01:45;;;;;;;7.93;5.87;;;;;;;;;;5089859;28;20194;-55
2023/01/11 12:04:14;;;;;;;7.07;5.37;;;;;;;;;;5089970;28;20222;-56
2023/01/11 12:06:40;;;;;;;8.70;5.53;;;;;;;;;;5090109;28;20210;-55
2023/01/11 12:09:10;;;;;;;9.10;5.30;;;;;;;;;;5089940;28;20657;-55
2023/01/11 12:11:39;;;;;;;7.30;4.93;;;;;;;;;;5088019;28;20299;-55
2023/01/11 12:14:15;;;;;;;8.47;6.97;;;;;;;;;;5089950;28;20312;-54
2023/01/11 12:16:42;;;;;;;9.13;4.63;;;;;;;;;;5089812;28;20199;-55
2023/01/11 12:19:23;;;;;;;9.57;7.03;;;;;;;;;;5090194;28;20206;-55
2023/01/11 12:21:50;;;;;;;6.67;4.50;;;;;;;;;;5089996;28;20195;-56
2023/01/11 12:24:22;;;;;;;7.90;4.33;;;;;;;;;;5089997;28;20248;-55
2023/01/11 12:26:54;;;;;;;17.20;13.03;;;;;;;;;;5090030;28;20206;-55
2023/01/11 12:29:39;;;;;;;7.90;4.93;;;;;;;;;;5089666;28;20640;-55
2023/01/11 12:32:14;;;;;;;9.67;5.33;;;;;;;;;;5089768;28;20195;-55
2023/01/11 12:34:49;;;;;;;6.23;4.27;;;;;;;;;;5089725;28;20563;-55
2023/01/11 12:37:26;;;;;;;9.33;6.53;;;;;;;;;;5090032;28;20351;-55
2023/01/11 12:39:55;;;;;;;7.10;4.50;;;;;;;;;;5089795;28;20260;-55
2023/01/11 12:42:34;;;;;;;9.60;3.53;;;;;;;;;;5089784;28;20209;-55
2023/01/11 12:45:07;;;;;;;6.07;3.47;;;;;;;;;;5089537;28;20210;-55
2023/01/11 12:47:41;;;;;;;10.20;3.90;;;;;;;;;;5089733;28;20206;-55
2023/01/11 12:50:11;;;;;;;7.07;3.47;;;;;;;;;;5089599;28;20202;-54
2023/01/11 12:52:47;;;;;;;11.37;3.67;;;;;;;;;;5089610;28;20222;-54
2023/01/11 12:55:19;;;;;;;8.10;2.83;;;;;;;;;;5089426;28;20258;-55
2023/01/11 12:58:04;;;;;;;9.10;2.97;;;;;;;;;;5093757;28;20221;-55
2023/01/11 13:00:49;;;;;;;7.50;2.93;;;;;;;;;;5093527;28;20202;-55
2023/01/11 13:03:33;;;;;;;6.73;4.53;;;;;;;;;;5093788;28;20199;-53
2023/01/11 13:06:03;;;;;;;39.73;28.43;;;;;;;;;;5093333;28;20182;-54
2023/01/11 13:08:39;;;;;;;8.17;3.00;;;;;;;;;;5093273;28;20210;-54
2023/01/11 13:11:09;;;;;;;8.87;2.67;;;;;;;;;;5093422;28;20199;-54
2023/01/11 13:13:49;;;;;;;9.67;3.40;;;;;;;;;;5093924;28;20210;-55
2023/01/11 13:16:17;;;;;;;11.67;6.53;;;;;;;;;;5093037;28;20222;-54
2023/01/11 13:18:46;;;;;;;16.47;11.40;;;;;;;;;;5093269;28;20539;-54
2023/01/11 13:21:18;;;;;;;121.63;61.33;;;;;;;;;;5093132;28;20295;-54
2023/01/11 13:23:46;;;;;;;13.63;6.70;;;;;;;;;;5093497;28;20680;-55
2023/01/11 13:26:16;;;;;;;31.80;19.40;;;;;;;;;;5093375;28;20253;-56
2023/01/11 13:28:43;;;;;;;9.43;3.60;;;;;;;;;;5094494;28;20222;-54
2023/01/11 13:31:11;;;;;;;291.27;211.97;;;;;;;;;;5092840;28;20199;-55
2023/01/11 13:33:40;;;;;;;85.33;58.23;;;;;;;;;;5092965;28;20638;-54
2023/01/11 13:36:12;;;;;;;9.50;3.23;;;;;;;;;;5092883;28;20313;-54
2023/01/11 13:38:40;;;;;;;7.43;3.10;;;;;;;;;;5092948;28;20233;-55
2023/01/11 13:41:12;;;;;;;6.53;3.37;;;;;;;;;;5092829;28;20309;-54
2023/01/11 13:43:40;;;;;;;8.00;3.03;;;;;;;;;;5092912;28;20206;-54
2023/01/11 13:46:11;;;;;;;6.27;2.70;;;;;;;;;;5092761;28;20566;-54
2023/01/11 13:48:41;;;;;;;9.37;4.33;;;;;;;;;;5092753;28;20195;-53
2023/01/11 13:51:12;;;;;;;5.83;2.80;;;;;;;;;;5094122;28;20205;-57
2023/01/11 13:53:43;;;;;;;5.60;2.37;;;;;;;;;;5092768;28;20199;-53
2023/01/11 13:56:12;;;;;;;8.30;2.60;;;;;;;;;;5092423;28;20718;-54
2023/01/11 13:58:47;;;;;;;6.30;2.77;;;;;;;;;;5092427;28;20198;-54
2023/01/11 14:01:14;;;;;;;6.40;2.70;;;;;;;;;;5090134;28;20301;-54
2023/01/11 14:03:45;;;;;;;7.53;2.23;;;;;;;;;;5091901;28;20272;-54
2023/01/11 14:06:23;;;;;;;7.20;2.53;;;;;;;;;;5091745;28;20195;-53
2023/01/11 14:09:00;;;;;;;6.47;2.30;;;;;;;;;;5092273;28;20609;-54
2023/01/11 14:11:31;;;;;;;7.60;3.03;;;;;;;;;;5091983;28;20205;-54
2023/01/11 14:14:14;;;;;;;8.57;3.23;;;;;;;;;;5092038;28;20195;-54
2023/01/11 14:16:48;;;;;;;10.33;2.53;;;;;;;;;;5092060;28;20198;-54
2023/01/11 14:19:20;;;;;;;11.00;2.60;;;;;;;;;;5091986;28;20241;-54
2023/01/11 14:21:55;;;;;;;5.90;2.30;;;;;;;;;;5092137;28;20210;-54
2023/01/11 14:24:22;;;;;;;7.63;2.13;;;;;;;;;;5091955;28;20198;-53
2023/01/11 14:27:07;;;;;;;6.83;2.70;;;;;;;;;;5092148;28;20199;-53
2023/01/11 14:30:03;;;;;;;6.37;2.43;;;;;;;;;;5091424;28;20712;-54
2023/01/11 14:32:38;;;;;;;5.77;2.00;;;;;;;;;;5029004;28;20254;-53
2023/01/11 14:35:31;;;;;;;7.47;2.33;;;;;;;;;;5080139;28;20233;-54
2023/01/11 14:38:11;;;;;;;7.27;2.43;;;;;;;;;;5091626;28;20228;-53
2023/01/11 14:40:57;;;;;;;7.30;2.60;;;;;;;;;;5091830;28;20202;-53
2023/01/11 14:43:30;;;;;;;5.50;2.17;;;;;;;;;;5091612;28;20206;-54
2023/01/11 14:46:07;;;;;;;8.23;3.57;;;;;;;;;;5091547;28;20245;-54
2023/01/11 14:48:37;;;;;;;7.80;2.63;;;;;;;;;;5091592;28;20230;-53
2023/01/11 14:51:12;;;;;;;4.73;2.03;;;;;;;;;;5091357;28;20648;-55
2023/01/11 14:53:40;;;;;;;8.80;2.80;;;;;;;;;;5091377;28;20198;-55
2023/01/11 14:56:21;;;;;;;6.67;2.50;;;;;;;;;;5091076;28;20226;-55
2023/01/11 14:59:03;;;;;;;6.73;1.97;;;;;;;;;;5091117;28;20281;-57
2023/01/11 15:01:29;;;;;;;7.87;2.60;;;;;;;;;;5091093;28;20214;-55
2023/01/11 15:03:56;;;;;;;6.73;2.57;;;;;;;;;;5091248;28;20195;-55
2023/01/11 15:06:22;;;;;;;6.90;2.17;;;;;;;;;;5090997;28;20288;-55
2023/01/11 15:08:50;;;;;;;7.27;2.77;;;;;;;;;;5091392;28;20198;-55
2023/01/11 15:11:32;;;;;;;12.73;7.00;;;;;;;;;;5089057;28;20237;-52
2023/01/11 15:13:59;;;;;;;6.33;2.70;;;;;;;;;;5088691;28;20315;-52
2023/01/11 15:19:22;;;;;;;11.90;3.23;;;;;;;;;;5090231;28;20232;-54
2023/01/11 15:21:52;;;;;;;10.87;2.60;;;;;;;;;;5090827;28;20681;-53